Etusivu
METAR-TAF:

METAR-TAF

Lentoasemat :

Edinburg, Texas, Yhdysvallat

Leveyspiiri: 26-26-31N, Pituuspiiri: 098-07-46W, korkeus merenpinnasta: 24 m

Tämänhetkinen sää

Tämä raportti tehtiin 20 minuuttia sitten, kello 02.15 UTC
Tuuli 5 kn kaakosta
Lämpötila 18°C
Kosteus 88%
Ilmanpaine 1014 hPa
Näkyvyys: 16.1 km
selkeää

METAR: KEBG 200215Z AUTO 13005KT 10SM CLR 18/16 A2995 RMK AO2 T01840160

Aika: 20:35 (02:35 UTC)


TAF: puuttuu

Säähavainnot ja -ennusteet yli 4000 lentoasemalta (METAR- ja TAF-raportit).

Käytössä olevat sääasemat on merkitty karttaan keltaisilla ja punaisilla pisteillä.

Aseta hiiri pisteen päälle nähdäksesi sääaseman nimen.

Klikkaa sitten nähdäksesi säähavainnot ja -ennusteet.

Kartan vaihtaminen: klikkaa mustalla rastilla varustettuja vihreitä pisteitä, niin voit zoomata sisään; viivalla varustettua vihreää pistettä, niin voit zoomata ulos tai vihreitä nuolia, niin pääset viereisille kartoille.


METAR-TAF: